Jinzhou, China
Current Conditions -  °F | °C
As of 7:00 PM on Sunday 21 Dec 2014 (Local Time) from ZYTL Reporting Station
Scattered Clouds Scattered Clouds  
Wind Chill: 19°   Ceiling: Unl
Heat Index: 30°   Visibility: 6mi
Dew Point: 10°   Wind: 16mph
Humidity: 44%   Direction: 280°W
Pressure: 30.21"   Gusts: NA
Location:  39.1°N, 121.72°E
Report Text: ZYTL 211100Z 28007MPS 9999 SCT033 M01/M12 Q1023 NOSIG
Loading
Personal Weather Stations






























Interactive Weather Map New forecast layout! Learn more

10-Day Weather Forecast

Advertisements
Track Severe Weather on mobile